Station: Port Pirie Airport Aws

  Atmospheric Gas Attenuation - ITU Rec 676-11   --------------- db/100km ---------------
Date Time Temp RH % AH g/m3 Dew Point Wind Direction Speed kph Gust kph Barometer mB Rainfall Since 9am 24GHz 47GHz 76GHz 122GHz 134GHz 241GHz
15 01:10 13.5 90 10.53 11.9 20 24 1016.5 0 23.7 29.4 48.2 126.8 125.6 433.6
15 01:00 13.8 91 10.84 12.4 19 30 1016.8 0 24.4 29.8 49.4 129.9 129.6 447.4
15 00:50 13.8 91 10.84 12.4 20 24 1016.2 0 24.4 29.8 49.3 129.8 129.5 447.2
15 00:40 13.8 91 10.84 12.4 24 28 1016.2 0 24.4 29.8 49.3 129.8 129.5 447.2
15 00:30 13.9 93 11.15 12.8 22 24 1016.3 0 25.1 30.3 50.6 133.3 133.8 462.2
15 00:20 14 92 11.1 12.7 20 22 1016.2 0 24.9 30.2 50.3 132.5 132.9 459.1
15 00:10 13.9 92 11.03 12.6 20 20 1016.3 0 24.8 30.1 50.1 131.9 132.1 456.2
15 00:00 14 91 10.98 12.6 24 26 1016.3 0 24.7 30.0 49.8 131.1 131.2 453.1
14 23:50 14 90 10.86 12.4 19 20 1016.3 0 24.4 29.8 49.3 129.7 129.5 447.1
14 23:40 14.2 85 10.38 11.7 19 20 1016.3 0 23.4 28.9 47.1 123.9 122.3 422.2
14 23:30 14.1 85 10.32 11.6 17 20 1016.9 0 23.3 28.8 46.9 123.4 121.7 420.0
14 23:20 13.9 86 10.31 11.6 15 17 1016.3 0 23.2 28.8 47.0 123.6 121.8 420.4
14 23:10 13.8 87 10.37 11.7 15 17 1016.4 0 23.4 29.0 47.3 124.4 122.8 424.0
14 23:00 13.7 87 10.3 11.6 15 19 1017 0 23.2 28.9 47.1 123.8 122.1 421.3
14 22:50 13.5 88 10.29 11.6 15 15 1016.3 0 23.2 28.9 47.1 124.0 122.2 421.6
14 22:40 13.2 89 10.22 11.4 13 15 1016.4 0 23.1 28.9 47.0 123.7 121.7 419.8
14 22:30 12.9 89 10.03 11.1 15 15 1016.3 0 22.7 28.7 46.4 121.9 119.5 412.0
14 22:20 12.6 90 9.96 11 15 15 1016.2 0 22.6 28.7 46.2 121.6 118.9 410.1
14 22:10 12.3 91 9.88 10.9 17 20 1016.3 0 22.4 28.6 46.1 121.2 118.3 407.8
14 22:00 11.8 90 9.47 10.2 17 19 1016.4 0 21.6 28.1 44.6 117.2 113.3 390.2
14 21:50 11.5 91 9.4 10.1 17 19 1016.3 0 21.4 28.0 44.5 116.9 112.7 388.3
14 21:40 11.5 91 9.4 10.1 17 19 1016.3 0 21.4 28.0 44.5 116.9 112.7 388.3
14 21:30 11.7 91 9.52 10.3 15 17 1017 0 21.7 28.2 44.9 118.0 114.2 393.4
14 21:20 11.6 90 9.36 10 17 19 1016.4 0 21.3 28.0 44.3 116.3 112.0 385.8
14 21:10 11.8 90 9.47 10.2 15 17 1016.4 0 21.6 28.1 44.6 117.2 113.3 390.2
14 21:00 11.4 89 9.14 9.7 15 15 1016.9 0 20.9 27.7 43.5 114.1 109.3 376.2
14 20:50 11.8 88 9.26 9.9 13 15 1016.1 0 21.1 27.7 43.7 114.8 110.3 379.9
14 20:40 12.1 87 9.33 10 11 13 1016.1 0 21.2 27.7 43.8 115.2 110.8 381.8
14 20:30 12.5 86 9.46 10.2 11 11 1016 0 21.5 27.8 44.2 116.0 112.1 386.1
14 20:20 13.5 86 10.06 11.2 11 11 1015.9 0 22.7 28.5 46.1 121.3 118.9 410.2
14 20:10 13.7 87 10.3 11.6 15 15 1015.9 0 23.2 28.9 47.0 123.7 122.0 420.9
14 20:00 13.3 86 9.94 11 13 15 1016.4 0 22.5 28.4 45.8 120.3 117.6 405.5
14 19:50 13 85 9.64 10.5 11 13 1015.7 0 21.9 28.0 44.6 117.3 113.8 392.2
14 19:40 12.9 84 9.47 10.3 13 13 1015.6 0 21.5 27.7 44.0 115.5 111.6 384.5
14 19:30 13.1 83 9.47 10.3 15 15 1016.2 0 21.5 27.7 43.9 115.3 111.3 383.7
14 19:20 13 82 9.3 10 15 15 1015.6 0 21.1 27.4 43.2 113.5 109.1 375.8
14 19:10 13 82 9.3 10 13 15 1015.5 0 21.1 27.4 43.2 113.5 109.1 375.8
14 19:00 12.9 81 9.13 9.7 17 19 1016.1 0 20.8 27.1 42.6 111.8 107.0 368.3
14 18:50 13.1 82 9.36 10.1 17 19 1015.4 0 21.2 27.4 43.4 114.0 109.8 378.1
14 18:40 12.9 81 9.13 9.7 15 15 1015.1 0 20.8 27.1 42.5 111.7 106.9 368.0
14 18:30 13.1 79 9.02 9.5 11 13 1015.6 0 20.5 26.9 42.0 110.2 105.1 362.0
14 18:20 13.5 79 9.24 9.9 11 13 1014.9 0 21.0 27.1 42.6 112.0 107.5 370.3
14 18:10 14.2 79 9.65 10.6 9 11 1014.7 0 21.8 27.6 43.9 115.5 112.1 386.4
14 18:00 14.4 78 9.64 10.6 9 9 1014.8 0 21.8 27.5 43.8 115.1 111.7 385.0
14 17:50 14.8 75 9.5 10.4 9 11 1014.5 0 21.5 27.1 43.0 112.9 109.2 376.3
14 17:40 15.3 73 9.53 10.5 9 11 1014.4 0 21.5 27.0 42.8 112.5 108.9 375.3
14 17:30 15.9 71 9.61 10.7 15 17 1014.3 0 21.6 27.0 42.8 112.5 109.1 376.1
14 17:20 16.7 69 9.81 11 9 11 1014.3 0 22.0 27.0 43.2 113.5 110.6 381.5
14 17:10 17.3 64 9.43 10.4 13 15 1014.3 0 21.2 26.2 41.4 108.7 104.8 361.3
14 17:00 17.7 62 9.35 10.3 11 11 1014.2 0 21.0 26.0 40.8 107.3 103.2 355.8
14 16:50 18 60 9.21 10.1 11 13 1014.1 0 20.7 25.7 40.1 105.4 101.0 348.2
14 16:40 18 58 8.91 9.6 13 15 1013.9 0 20.0 25.2 39.0 102.3 97.2 334.8
14 16:30 18.5 55 8.7 9.3 17 19 1013.8 0 19.6 24.7 37.9 99.5 93.9 323.5
14 16:20 19.2 50 8.24 8.5 17 20 1013.7 0 18.6 23.9 35.9 94.1 87.5 301.0
14 16:10 19.8 49 8.37 8.8 19 20 1013.6 0 18.8 23.9 36.1 94.6 88.4 304.2
14 16:00 20.1 48 8.34 8.8 20 26 1014.2 0 18.7 23.8 35.9 94.1 87.7 301.9
14 15:50 19.6 48 8.1 8.3 20 24 1013.6 0 18.3 23.5 35.2 92.2 85.4 293.5
14 15:40 20.1 48 8.34 8.8 22 24 1013.6 0 18.7 23.8 35.9 94.0 87.7 301.8
14 15:30 20.2 47 8.22 8.5 24 28 1013.5 0 18.5 23.6 35.4 92.7 86.1 296.4
14 15:20 20.3 48 8.44 8.9 26 30 1013.5 0 18.9 23.9 36.1 94.7 88.7 305.2
14 15:10 20.4 48 8.49 9 26 30 1013.5 0 19.0 23.9 36.3 95.1 89.2 307.0
14 15:00 20.3 49 8.62 9.2 28 30 1013.5 0 19.3 24.1 36.8 96.5 90.8 312.8
14 14:50 20.2 49 8.57 9.2 30 32 1013.4 0 19.2 24.1 36.6 96.1 90.3 311.1
14 14:40 20.4 49 8.67 9.3 30 35 1013.5 0 19.4 24.2 36.9 96.9 91.3 314.6
14 14:30 19.9 50 8.59 9.2 26 28 1013.5 0 19.3 24.2 36.9 96.7 90.9 313.1
14 14:20 20 50 8.64 9.3 28 32 1013.4 0 19.4 24.2 37.0 97.0 91.4 314.8
14 14:10 20.1 51 8.86 9.7 22 24 1013.4 0 19.8 24.5 37.8 99.1 94.0 323.8
14 14:00 20 50 8.64 9.3 26 35 1014 0 19.4 24.3 37.0 97.1 91.5 315.0
14 13:50 20 51 8.81 9.6 26 32 1013.5 0 19.7 24.5 37.6 98.7 93.5 322.1
14 13:40 19.9 51 8.76 9.5 28 32 1013.6 0 19.6 24.4 37.5 98.4 93.0 320.4
14 13:30 19.8 51 8.71 9.4 28 37 1014.3 0 19.5 24.4 37.4 98.1 92.6 318.8
14 13:20 19.5 54 9.06 10 30 37 1013.9 0 20.3 25.0 38.8 101.9 97.2 335.1
14 13:10 19.6 53 8.95 9.8 30 39 1013.9 0 20.1 24.8 38.4 100.7 95.7 329.9
14 13:00 19.2 57 9.4 10.5 28 39 1014.6 0 21.0 25.7 40.3 105.8 101.9 351.5
14 12:50 18.8 58 9.34 10.4 32 39 1014.2 0 20.9 25.7 40.2 105.7 101.6 350.5
14 12:40 18.8 60 9.66 10.9 28 32 1014.3 0 21.6 26.2 41.5 109.0 105.7 364.8
14 12:30 18.4 60 9.44 10.5 30 32 1014.5 0 21.1 25.9 40.8 107.3 103.5 356.8
14 12:20 18.6 63 10.03 11.4 30 33 1014.6 0 22.4 26.8 43.1 113.2 110.8 382.5
14 12:10 17.7 65 9.81 11 35 41 1014.7 0 22.0 26.7 42.7 112.2 109.2 376.8
14 12:00 18 64 9.83 11.1 28 44 1015.5 0 22.0 26.7 42.6 112.0 109.1 376.6
14 11:50 17.8 68 10.32 11.8 26 30 1015 0 23.0 27.6 44.7 117.5 115.8 400.0
14 11:40 17.7 68 10.26 11.7 33 37 1015.1 0 22.9 27.5 44.5 117.0 115.2 397.7
14 11:30 18.1 70 10.81 12.5 26 32 1015.2 0 24.1 28.3 46.5 122.4 121.9 421.4
14 11:20 17.4 69 10.23 11.7 33 39 1015.4 0 22.9 27.5 44.6 117.2 115.3 397.9
14 11:10 17.6 68 10.2 11.6 33 35 1015.5 0 22.8 27.4 44.3 116.6 114.6 395.6
14 11:00 17.8 70 10.62 12.3 28 32 1015.6 0 23.7 28.1 45.9 120.8 119.9 414.2
14 10:50 16.7 71 10.09 11.4 30 35 1015.7 0 22.6 27.5 44.4 116.7 114.5 395.0
14 10:40 17.2 71 10.4 11.9 28 35 1015.8 0 23.2 27.9 45.4 119.4 117.9 407.0
14 10:30 17.6 71 10.65 12.3 28 33 1015.8 0 23.8 28.2 46.2 121.5 120.6 416.7
14 10:20 17.2 71 10.4 11.9 24 33 1015.8 0 23.2 27.9 45.4 119.4 117.9 407.0
14 10:10 17.4 71 10.52 12.1 30 33 1015.8 0 23.5 28.0 45.8 120.4 119.2 411.6
14 10:00 16.8 73 10.44 11.9 26 30 1015.8 0 23.4 28.1 45.8 120.4 119.0 411.0
14 09:50 16.4 74 10.33 11.8 24 26 1015.9 0 23.1 28.0 45.6 119.8 118.2 407.9
14 09:40 15.8 76 10.23 11.6 22 24 1015.8 0 23.0 28.1 45.5 119.6 117.7 406.3
14 09:30 16 75 10.22 11.6 20 26 1015.7 0 22.9 28.0 45.3 119.2 117.3 404.7
14 09:20 15.7 74 9.9 11.1 24 32 1015.6 0 22.3 27.5 44.2 116.1 113.4 391.1
14 09:10 15.8 75 10.1 11.4 20 24 1015.5 0 22.7 27.8 44.9 118.2 115.9 400.0
14 09:00 15.6 75 9.97 11.2 22 26 1015.4 0 22.4 27.7 44.5 117.0 114.4 394.8
14 08:50 15.7 74 9.9 11.1 26 28 1015.4 1.2 22.3 27.5 44.2 116.1 113.3 391.0
14 08:40 15.3 78 10.19 11.5 20 22 1015.4 1.2 22.9 28.1 45.6 119.9 117.9 406.9

Last Refresh: 15-Jun-2024 01:23:22

Bureau of Meteorology